sensor_id;sensor_type;location;lat;lon;timestamp;P1;durP1;ratioP1;P2;durP2;ratioP2
12118;SDS011;6123;48.864;9.200;2023-04-25T00:01:45;2.35;;;2.15;;
12118;SDS011;6123;48.864;9.200;2023-04-25T00:04:11;2.15;;;1.95;;
12118;SDS011;6123;48.864;9.200;2023-04-25T00:06:37;2.15;;;1.95;;
12118;SDS011;6123;48.864;9.200;2023-04-25T00:09:03;2.20;;;1.95;;
12118;SDS011;6123;48.864;9.200;2023-04-25T00:11:35;2.00;;;1.90;;
12118;SDS011;6123;48.864;9.200;2023-04-25T00:14:03;2.53;;;2.08;;
12118;SDS011;6123;48.864;9.200;2023-04-25T00:16:32;2.30;;;2.10;;
12118;SDS011;6123;48.864;9.200;2023-04-25T00:18:59;2.38;;;2.17;;
12118;SDS011;6123;48.864;9.200;2023-04-25T00:21:26;2.28;;;2.10;;
12118;SDS011;6123;48.864;9.200;2023-04-25T00:23:53;2.47;;;2.08;;
12118;SDS011;6123;48.864;9.200;2023-04-25T00:26:19;1.90;;;1.80;;
12118;SDS011;6123;48.864;9.200;2023-04-25T00:28:46;2.17;;;1.88;;
12118;SDS011;6123;48.864;9.200;2023-04-25T00:31:14;1.63;;;1.48;;
12118;SDS011;6123;48.864;9.200;2023-04-25T00:33:40;2.20;;;2.00;;
12118;SDS011;6123;48.864;9.200;2023-04-25T00:36:06;2.63;;;2.03;;
12118;SDS011;6123;48.864;9.200;2023-04-25T00:38:32;2.03;;;1.80;;
12118;SDS011;6123;48.864;9.200;2023-04-25T00:40:57;2.15;;;1.80;;
12118;SDS011;6123;48.864;9.200;2023-04-25T00:43:25;2.10;;;1.90;;
12118;SDS011;6123;48.864;9.200;2023-04-25T00:45:54;1.95;;;1.85;;
12118;SDS011;6123;48.864;9.200;2023-04-25T00:48:22;1.40;;;1.30;;
12118;SDS011;6123;48.864;9.200;2023-04-25T00:50:51;2.38;;;1.65;;
12118;SDS011;6123;48.864;9.200;2023-04-25T00:53:19;1.80;;;1.70;;
12118;SDS011;6123;48.864;9.200;2023-04-25T00:55:45;2.35;;;1.58;;
12118;SDS011;6123;48.864;9.200;2023-04-25T00:58:11;1.70;;;1.52;;
12118;SDS011;6123;48.864;9.200;2023-04-25T01:00:37;1.77;;;1.67;;
12118;SDS011;6123;48.864;9.200;2023-04-25T01:03:02;1.55;;;1.45;;
12118;SDS011;6123;48.864;9.200;2023-04-25T01:05:28;1.60;;;1.50;;
12118;SDS011;6123;48.864;9.200;2023-04-25T01:07:54;2.55;;;1.65;;
12118;SDS011;6123;48.864;9.200;2023-04-25T01:10:20;1.80;;;1.63;;
12118;SDS011;6123;48.864;9.200;2023-04-25T01:12:46;1.52;;;1.42;;
12118;SDS011;6123;48.864;9.200;2023-04-25T01:15:12;1.83;;;1.73;;
12118;SDS011;6123;48.864;9.200;2023-04-25T01:17:37;1.50;;;1.40;;
12118;SDS011;6123;48.864;9.200;2023-04-25T01:20:05;2.10;;;1.90;;
12118;SDS011;6123;48.864;9.200;2023-04-25T01:22:32;2.15;;;1.80;;
12118;SDS011;6123;48.864;9.200;2023-04-25T01:24:59;2.40;;;2.20;;
12118;SDS011;6123;48.864;9.200;2023-04-25T01:27:25;1.70;;;1.60;;
12118;SDS011;6123;48.864;9.200;2023-04-25T01:29:54;2.35;;;2.08;;
12118;SDS011;6123;48.864;9.200;2023-04-25T01:32:21;2.30;;;1.75;;
12118;SDS011;6123;48.864;9.200;2023-04-25T01:34:48;1.60;;;1.50;;
12118;SDS011;6123;48.864;9.200;2023-04-25T01:37:16;1.80;;;1.70;;
12118;SDS011;6123;48.864;9.200;2023-04-25T01:39:42;1.90;;;1.80;;
12118;SDS011;6123;48.864;9.200;2023-04-25T01:42:08;2.25;;;1.92;;
12118;SDS011;6123;48.864;9.200;2023-04-25T01:44:34;1.98;;;1.88;;
12118;SDS011;6123;48.864;9.200;2023-04-25T01:46:59;1.73;;;1.63;;
12118;SDS011;6123;48.864;9.200;2023-04-25T01:49:27;1.83;;;1.73;;
12118;SDS011;6123;48.864;9.200;2023-04-25T01:51:53;2.00;;;1.90;;
12118;SDS011;6123;48.864;9.200;2023-04-25T01:54:18;2.00;;;1.90;;
12118;SDS011;6123;48.864;9.200;2023-04-25T01:56:49;2.00;;;1.90;;
12118;SDS011;6123;48.864;9.200;2023-04-25T01:59:18;3.83;;;2.35;;
12118;SDS011;6123;48.864;9.200;2023-04-25T02:01:45;2.30;;;2.00;;
12118;SDS011;6123;48.864;9.200;2023-04-25T02:04:10;2.45;;;2.13;;
12118;SDS011;6123;48.864;9.200;2023-04-25T02:06:36;2.22;;;1.90;;
12118;SDS011;6123;48.864;9.200;2023-04-25T02:09:02;2.20;;;2.10;;
12118;SDS011;6123;48.864;9.200;2023-04-25T02:11:27;2.10;;;2.00;;
12118;SDS011;6123;48.864;9.200;2023-04-25T02:13:53;2.03;;;1.90;;
12118;SDS011;6123;48.864;9.200;2023-04-25T02:16:18;1.85;;;1.75;;
12118;SDS011;6123;48.864;9.200;2023-04-25T02:18:44;2.50;;;2.30;;
12118;SDS011;6123;48.864;9.200;2023-04-25T02:21:10;2.70;;;2.30;;
12118;SDS011;6123;48.864;9.200;2023-04-25T02:23:36;2.58;;;2.30;;
12118;SDS011;6123;48.864;9.200;2023-04-25T02:26:02;2.42;;;2.22;;
12118;SDS011;6123;48.864;9.200;2023-04-25T02:28:27;2.60;;;2.40;;
12118;SDS011;6123;48.864;9.200;2023-04-25T02:30:53;2.72;;;2.53;;
12118;SDS011;6123;48.864;9.200;2023-04-25T02:33:19;2.72;;;2.53;;
12118;SDS011;6123;48.864;9.200;2023-04-25T02:35:45;2.58;;;2.40;;
12118;SDS011;6123;48.864;9.200;2023-04-25T02:38:11;2.95;;;2.65;;
12118;SDS011;6123;48.864;9.200;2023-04-25T02:40:37;2.50;;;2.30;;
12118;SDS011;6123;48.864;9.200;2023-04-25T02:43:05;2.67;;;2.28;;
12118;SDS011;6123;48.864;9.200;2023-04-25T02:45:31;2.15;;;2.05;;
12118;SDS011;6123;48.864;9.200;2023-04-25T02:48:00;2.22;;;2.10;;
12118;SDS011;6123;48.864;9.200;2023-04-25T02:50:28;2.13;;;2.03;;
12118;SDS011;6123;48.864;9.200;2023-04-25T02:52:53;2.63;;;2.40;;
12118;SDS011;6123;48.864;9.200;2023-04-25T02:55:19;3.70;;;2.35;;
12118;SDS011;6123;48.864;9.200;2023-04-25T02:57:45;2.85;;;2.22;;
12118;SDS011;6123;48.864;9.200;2023-04-25T03:00:11;2.70;;;2.50;;
12118;SDS011;6123;48.864;9.200;2023-04-25T03:02:39;2.50;;;2.30;;
12118;SDS011;6123;48.864;9.200;2023-04-25T03:05:06;3.20;;;2.80;;
12118;SDS011;6123;48.864;9.200;2023-04-25T03:07:32;2.88;;;2.30;;
12118;SDS011;6123;48.864;9.200;2023-04-25T03:09:58;2.83;;;2.38;;
12118;SDS011;6123;48.864;9.200;2023-04-25T03:12:23;3.08;;;2.78;;
12118;SDS011;6123;48.864;9.200;2023-04-25T03:14:51;2.75;;;2.05;;
12118;SDS011;6123;48.864;9.200;2023-04-25T03:17:17;2.33;;;2.13;;
12118;SDS011;6123;48.864;9.200;2023-04-25T03:19:43;2.55;;;2.30;;
12118;SDS011;6123;48.864;9.200;2023-04-25T03:22:08;2.63;;;2.42;;
12118;SDS011;6123;48.864;9.200;2023-04-25T03:24:34;4.20;;;2.38;;
12118;SDS011;6123;48.864;9.200;2023-04-25T03:27:00;2.95;;;2.40;;
12118;SDS011;6123;48.864;9.200;2023-04-25T03:29:26;2.47;;;2.28;;
12118;SDS011;6123;48.864;9.200;2023-04-25T03:31:52;2.88;;;2.30;;
12118;SDS011;6123;48.864;9.200;2023-04-25T03:34:20;3.35;;;2.38;;
12118;SDS011;6123;48.864;9.200;2023-04-25T03:36:46;2.88;;;2.40;;
12118;SDS011;6123;48.864;9.200;2023-04-25T03:39:12;3.20;;;2.60;;
12118;SDS011;6123;48.864;9.200;2023-04-25T03:41:38;2.95;;;2.65;;
12118;SDS011;6123;48.864;9.200;2023-04-25T03:44:03;2.87;;;2.43;;
12118;SDS011;6123;48.864;9.200;2023-04-25T03:46:29;3.20;;;2.90;;
12118;SDS011;6123;48.864;9.200;2023-04-25T03:48:54;2.70;;;2.50;;
12118;SDS011;6123;48.864;9.200;2023-04-25T03:51:20;3.45;;;2.60;;
12118;SDS011;6123;48.864;9.200;2023-04-25T03:53:45;4.63;;;2.75;;
12118;SDS011;6123;48.864;9.200;2023-04-25T03:56:11;2.75;;;2.33;;
12118;SDS011;6123;48.864;9.200;2023-04-25T03:58:37;3.63;;;3.00;;
12118;SDS011;6123;48.864;9.200;2023-04-25T04:01:02;2.75;;;2.55;;
12118;SDS011;6123;48.864;9.200;2023-04-25T04:03:32;2.80;;;2.60;;
12118;SDS011;6123;48.864;9.200;2023-04-25T04:06:01;3.03;;;2.72;;
12118;SDS011;6123;48.864;9.200;2023-04-25T04:08:29;3.67;;;2.80;;
12118;SDS011;6123;48.864;9.200;2023-04-25T04:10:55;3.70;;;3.03;;
12118;SDS011;6123;48.864;9.200;2023-04-25T04:13:21;3.63;;;3.33;;
12118;SDS011;6123;48.864;9.200;2023-04-25T04:15:47;3.38;;;3.10;;
12118;SDS011;6123;48.864;9.200;2023-04-25T04:18:12;3.47;;;3.28;;
12118;SDS011;6123;48.864;9.200;2023-04-25T04:20:40;3.72;;;3.42;;
12118;SDS011;6123;48.864;9.200;2023-04-25T04:23:08;3.40;;;3.15;;
12118;SDS011;6123;48.864;9.200;2023-04-25T04:25:34;4.05;;;3.75;;
12118;SDS011;6123;48.864;9.200;2023-04-25T04:28:02;3.97;;;3.67;;
12118;SDS011;6123;48.864;9.200;2023-04-25T04:30:28;4.05;;;3.65;;
12118;SDS011;6123;48.864;9.200;2023-04-25T04:32:54;3.53;;;3.33;;
12118;SDS011;6123;48.864;9.200;2023-04-25T04:35:23;3.50;;;3.30;;
12118;SDS011;6123;48.864;9.200;2023-04-25T04:37:49;4.28;;;3.45;;
12118;SDS011;6123;48.864;9.200;2023-04-25T04:40:14;4.40;;;4.10;;
12118;SDS011;6123;48.864;9.200;2023-04-25T04:42:41;3.78;;;3.50;;
12118;SDS011;6123;48.864;9.200;2023-04-25T04:45:07;3.67;;;3.38;;
12118;SDS011;6123;48.864;9.200;2023-04-25T04:47:33;3.63;;;3.33;;
12118;SDS011;6123;48.864;9.200;2023-04-25T04:50:02;4.43;;;4.00;;
12118;SDS011;6123;48.864;9.200;2023-04-25T04:52:28;3.95;;;3.63;;
12118;SDS011;6123;48.864;9.200;2023-04-25T04:54:54;3.60;;;3.30;;
12118;SDS011;6123;48.864;9.200;2023-04-25T04:57:20;4.97;;;4.07;;
12118;SDS011;6123;48.864;9.200;2023-04-25T04:59:48;3.85;;;3.55;;
12118;SDS011;6123;48.864;9.200;2023-04-25T05:02:15;3.67;;;3.47;;
12118;SDS011;6123;48.864;9.200;2023-04-25T05:04:40;3.78;;;3.42;;
12118;SDS011;6123;48.864;9.200;2023-04-25T05:07:08;4.15;;;3.85;;
12118;SDS011;6123;48.864;9.200;2023-04-25T05:09:34;4.07;;;3.78;;
12118;SDS011;6123;48.864;9.200;2023-04-25T05:12:00;3.75;;;3.45;;
12118;SDS011;6123;48.864;9.200;2023-04-25T05:14:26;3.70;;;3.40;;
12118;SDS011;6123;48.864;9.200;2023-04-25T05:16:51;4.40;;;3.67;;
12118;SDS011;6123;48.864;9.200;2023-04-25T05:19:17;3.67;;;3.38;;
12118;SDS011;6123;48.864;9.200;2023-04-25T05:21:43;4.13;;;3.70;;
12118;SDS011;6123;48.864;9.200;2023-04-25T17:45:38;4.95;;;4.30;;
12118;SDS011;6123;48.864;9.200;2023-04-25T17:48:04;5.55;;;4.97;;
12118;SDS011;6123;48.864;9.200;2023-04-25T17:50:30;4.25;;;3.60;;
12118;SDS011;6123;48.864;9.200;2023-04-25T17:52:56;3.28;;;2.97;;
12118;SDS011;6123;48.864;9.200;2023-04-25T17:55:22;3.47;;;3.17;;
12118;SDS011;6123;48.864;9.200;2023-04-25T17:57:51;3.95;;;2.95;;
12118;SDS011;6123;48.864;9.200;2023-04-25T18:00:17;2.97;;;2.72;;
12118;SDS011;6123;48.864;9.200;2023-04-25T18:02:43;3.38;;;3.08;;
12118;SDS011;6123;48.864;9.200;2023-04-25T18:05:11;3.10;;;2.90;;
12118;SDS011;6123;48.864;9.200;2023-04-25T18:07:36;5.60;;;3.45;;
12118;SDS011;6123;48.864;9.200;2023-04-25T18:10:03;2.80;;;2.60;;
12118;SDS011;6123;48.864;9.200;2023-04-25T18:12:30;3.80;;;3.50;;
12118;SDS011;6123;48.864;9.200;2023-04-25T18:14:59;4.05;;;3.80;;
12118;SDS011;6123;48.864;9.200;2023-04-25T18:17:25;7.50;;;5.55;;
12118;SDS011;6123;48.864;9.200;2023-04-25T18:19:51;8.63;;;6.85;;
12118;SDS011;6123;48.864;9.200;2023-04-25T18:22:19;7.18;;;6.57;;
12118;SDS011;6123;48.864;9.200;2023-04-25T18:24:45;6.80;;;6.20;;
12118;SDS011;6123;48.864;9.200;2023-04-25T18:27:10;8.40;;;7.55;;
12118;SDS011;6123;48.864;9.200;2023-04-25T18:29:36;8.32;;;7.50;;
12118;SDS011;6123;48.864;9.200;2023-04-25T18:32:04;7.60;;;6.90;;
12118;SDS011;6123;48.864;9.200;2023-04-25T18:34:30;8.50;;;7.70;;
12118;SDS011;6123;48.864;9.200;2023-04-25T18:36:58;7.57;;;6.82;;
12118;SDS011;6123;48.864;9.200;2023-04-25T18:39:25;8.82;;;7.28;;
12118;SDS011;6123;48.864;9.200;2023-04-25T18:41:51;7.38;;;6.78;;
12118;SDS011;6123;48.864;9.200;2023-04-25T18:44:16;7.75;;;6.38;;
12118;SDS011;6123;48.864;9.200;2023-04-25T18:46:44;7.40;;;6.70;;
12118;SDS011;6123;48.864;9.200;2023-04-25T18:49:11;7.53;;;6.80;;
12118;SDS011;6123;48.864;9.200;2023-04-25T18:51:37;7.30;;;6.60;;
12118;SDS011;6123;48.864;9.200;2023-04-25T18:54:02;7.75;;;6.93;;
12118;SDS011;6123;48.864;9.200;2023-04-25T18:56:28;8.05;;;6.88;;
12118;SDS011;6123;48.864;9.200;2023-04-25T18:58:54;7.93;;;6.38;;
12118;SDS011;6123;48.864;9.200;2023-04-25T19:01:21;8.88;;;6.43;;
12118;SDS011;6123;48.864;9.200;2023-04-25T19:03:49;7.75;;;6.97;;
12118;SDS011;6123;48.864;9.200;2023-04-25T19:06:23;7.90;;;6.78;;
12118;SDS011;6123;48.864;9.200;2023-04-25T19:08:52;7.57;;;6.85;;
12118;SDS011;6123;48.864;9.200;2023-04-25T19:11:19;6.80;;;6.18;;
12118;SDS011;6123;48.864;9.200;2023-04-25T19:13:45;7.40;;;6.50;;
12118;SDS011;6123;48.864;9.200;2023-04-25T19:16:11;8.20;;;7.43;;
12118;SDS011;6123;48.864;9.200;2023-04-25T19:18:37;7.85;;;7.15;;
12118;SDS011;6123;48.864;9.200;2023-04-25T19:21:03;7.30;;;6.47;;
12118;SDS011;6123;48.864;9.200;2023-04-25T19:23:32;7.07;;;6.47;;
12118;SDS011;6123;48.864;9.200;2023-04-25T19:25:58;6.80;;;6.20;;
12118;SDS011;6123;48.864;9.200;2023-04-25T19:28:24;8.35;;;6.93;;
12118;SDS011;6123;48.864;9.200;2023-04-25T19:30:50;7.10;;;6.53;;
12118;SDS011;6123;48.864;9.200;2023-04-25T19:33:18;7.88;;;6.95;;
12118;SDS011;6123;48.864;9.200;2023-04-25T19:35:44;8.98;;;7.72;;
12118;SDS011;6123;48.864;9.200;2023-04-25T19:38:09;8.10;;;7.35;;
12118;SDS011;6123;48.864;9.200;2023-04-25T19:40:38;8.98;;;8.07;;
12118;SDS011;6123;48.864;9.200;2023-04-25T19:43:04;9.00;;;8.20;;
12118;SDS011;6123;48.864;9.200;2023-04-25T19:45:30;9.15;;;8.30;;
12118;SDS011;6123;48.864;9.200;2023-04-25T19:47:58;7.82;;;7.13;;
12118;SDS011;6123;48.864;9.200;2023-04-25T19:50:25;9.13;;;8.23;;
12118;SDS011;6123;48.864;9.200;2023-04-25T19:52:50;8.35;;;7.47;;
12118;SDS011;6123;48.864;9.200;2023-04-25T19:55:19;8.50;;;7.65;;
12118;SDS011;6123;48.864;9.200;2023-04-25T19:57:50;8.98;;;8.07;;
12118;SDS011;6123;48.864;9.200;2023-04-25T20:00:18;9.18;;;8.27;;
12118;SDS011;6123;48.864;9.200;2023-04-25T20:02:47;9.13;;;8.20;;
12118;SDS011;6123;48.864;9.200;2023-04-25T20:05:14;9.88;;;8.60;;
12118;SDS011;6123;48.864;9.200;2023-04-25T20:07:43;9.45;;;8.55;;
12118;SDS011;6123;48.864;9.200;2023-04-25T20:10:09;8.05;;;7.35;;
12118;SDS011;6123;48.864;9.200;2023-04-25T20:12:38;9.20;;;8.32;;
12118;SDS011;6123;48.864;9.200;2023-04-25T20:15:07;9.65;;;8.65;;
12118;SDS011;6123;48.864;9.200;2023-04-25T20:17:34;8.10;;;7.43;;
12118;SDS011;6123;48.864;9.200;2023-04-25T20:20:00;9.65;;;8.63;;
12118;SDS011;6123;48.864;9.200;2023-04-25T20:22:25;10.65;;;8.98;;
12118;SDS011;6123;48.864;9.200;2023-04-25T20:24:54;8.50;;;7.45;;
12118;SDS011;6123;48.864;9.200;2023-04-25T20:27:22;8.45;;;7.65;;
12118;SDS011;6123;48.864;9.200;2023-04-25T20:29:47;10.48;;;9.05;;
12118;SDS011;6123;48.864;9.200;2023-04-25T20:32:13;9.10;;;8.20;;
12118;SDS011;6123;48.864;9.200;2023-04-25T20:34:38;10.13;;;9.20;;
12118;SDS011;6123;48.864;9.200;2023-04-25T20:37:09;10.50;;;9.50;;
12118;SDS011;6123;48.864;9.200;2023-04-25T20:39:35;9.77;;;8.77;;
12118;SDS011;6123;48.864;9.200;2023-04-25T20:42:01;7.97;;;7.28;;
12118;SDS011;6123;48.864;9.200;2023-04-25T20:44:27;8.38;;;7.68;;
12118;SDS011;6123;48.864;9.200;2023-04-25T20:46:52;8.25;;;7.57;;
12118;SDS011;6123;48.864;9.200;2023-04-25T20:49:20;7.80;;;7.10;;
12118;SDS011;6123;48.864;9.200;2023-04-25T20:51:45;8.35;;;7.55;;
12118;SDS011;6123;48.864;9.200;2023-04-25T20:54:11;8.55;;;7.65;;
12118;SDS011;6123;48.864;9.200;2023-04-25T20:56:37;8.48;;;7.68;;
12118;SDS011;6123;48.864;9.200;2023-04-25T20:59:03;8.48;;;7.68;;
12118;SDS011;6123;48.864;9.200;2023-04-25T21:01:28;8.35;;;7.50;;
12118;SDS011;6123;48.864;9.200;2023-04-25T21:03:54;8.88;;;7.38;;
12118;SDS011;6123;48.864;9.200;2023-04-25T21:06:19;8.57;;;7.60;;
12118;SDS011;6123;48.864;9.200;2023-04-25T21:08:48;7.85;;;7.15;;
12118;SDS011;6123;48.864;9.200;2023-04-25T21:11:16;8.52;;;7.57;;
12118;SDS011;6123;48.864;9.200;2023-04-25T21:13:43;7.85;;;7.22;;
12118;SDS011;6123;48.864;9.200;2023-04-25T21:16:08;7.72;;;6.95;;
12118;SDS011;6123;48.864;9.200;2023-04-25T21:18:36;7.70;;;7.10;;
12118;SDS011;6123;48.864;9.200;2023-04-25T21:21:04;7.50;;;6.80;;
12118;SDS011;6123;48.864;9.200;2023-04-25T21:23:30;8.38;;;7.68;;
12118;SDS011;6123;48.864;9.200;2023-04-25T21:25:58;7.65;;;6.95;;
12118;SDS011;6123;48.864;9.200;2023-04-25T21:28:26;7.40;;;6.80;;
12118;SDS011;6123;48.864;9.200;2023-04-25T21:30:54;7.85;;;7.05;;
12118;SDS011;6123;48.864;9.200;2023-04-25T21:33:20;7.22;;;6.63;;
12118;SDS011;6123;48.864;9.200;2023-04-25T21:35:46;7.30;;;6.68;;
12118;SDS011;6123;48.864;9.200;2023-04-25T21:38:11;8.52;;;7.80;;
12118;SDS011;6123;48.864;9.200;2023-04-25T21:40:42;9.27;;;8.32;;
12118;SDS011;6123;48.864;9.200;2023-04-25T21:43:08;8.20;;;7.50;;
12118;SDS011;6123;48.864;9.200;2023-04-25T21:45:33;7.95;;;7.25;;
12118;SDS011;6123;48.864;9.200;2023-04-25T21:48:03;7.72;;;7.03;;
12118;SDS011;6123;48.864;9.200;2023-04-25T21:50:29;8.75;;;7.95;;
12118;SDS011;6123;48.864;9.200;2023-04-25T21:52:57;8.07;;;7.38;;
12118;SDS011;6123;48.864;9.200;2023-04-25T21:55:26;8.80;;;8.00;;
12118;SDS011;6123;48.864;9.200;2023-04-25T21:57:52;8.00;;;7.18;;
12118;SDS011;6123;48.864;9.200;2023-04-25T22:00:18;8.27;;;7.57;;
12118;SDS011;6123;48.864;9.200;2023-04-25T22:02:48;8.90;;;8.10;;
12118;SDS011;6123;48.864;9.200;2023-04-25T22:05:17;10.20;;;8.30;;
12118;SDS011;6123;48.864;9.200;2023-04-25T22:07:45;9.77;;;8.60;;
12118;SDS011;6123;48.864;9.200;2023-04-25T22:10:11;8.57;;;7.78;;
12118;SDS011;6123;48.864;9.200;2023-04-25T22:12:37;8.95;;;7.88;;
12118;SDS011;6123;48.864;9.200;2023-04-25T22:15:03;9.15;;;8.20;;
12118;SDS011;6123;48.864;9.200;2023-04-25T22:17:29;8.93;;;7.97;;
12118;SDS011;6123;48.864;9.200;2023-04-25T22:19:55;10.75;;;8.20;;
12118;SDS011;6123;48.864;9.200;2023-04-25T22:22:20;8.27;;;7.35;;
12118;SDS011;6123;48.864;9.200;2023-04-25T22:24:48;8.73;;;7.85;;
12118;SDS011;6123;48.864;9.200;2023-04-25T22:27:14;9.32;;;8.27;;
12118;SDS011;6123;48.864;9.200;2023-04-25T22:29:42;9.32;;;8.30;;
12118;SDS011;6123;48.864;9.200;2023-04-25T22:32:07;8.80;;;7.90;;
12118;SDS011;6123;48.864;9.200;2023-04-25T22:34:33;9.35;;;8.35;;
12118;SDS011;6123;48.864;9.200;2023-04-25T22:36:59;9.65;;;8.27;;
12118;SDS011;6123;48.864;9.200;2023-04-25T22:39:24;9.02;;;8.18;;
12118;SDS011;6123;48.864;9.200;2023-04-25T22:41:50;8.50;;;7.70;;
12118;SDS011;6123;48.864;9.200;2023-04-25T22:44:15;9.32;;;8.23;;
12118;SDS011;6123;48.864;9.200;2023-04-25T22:46:41;8.80;;;7.90;;
12118;SDS011;6123;48.864;9.200;2023-04-25T22:49:07;10.88;;;8.20;;
12118;SDS011;6123;48.864;9.200;2023-04-25T22:51:33;7.97;;;7.18;;
12118;SDS011;6123;48.864;9.200;2023-04-25T22:53:59;8.30;;;7.50;;
12118;SDS011;6123;48.864;9.200;2023-04-25T22:56:26;8.73;;;7.85;;
12118;SDS011;6123;48.864;9.200;2023-04-25T22:58:54;8.57;;;7.57;;
12118;SDS011;6123;48.864;9.200;2023-04-25T23:01:22;7.53;;;6.82;;
12118;SDS011;6123;48.864;9.200;2023-04-25T23:03:48;8.35;;;7.63;;
12118;SDS011;6123;48.864;9.200;2023-04-25T23:06:14;8.10;;;7.30;;
12118;SDS011;6123;48.864;9.200;2023-04-25T23:08:42;9.15;;;7.57;;
12118;SDS011;6123;48.864;9.200;2023-04-25T23:11:08;8.23;;;7.43;;
12118;SDS011;6123;48.864;9.200;2023-04-25T23:13:36;8.13;;;7.32;;
12118;SDS011;6123;48.864;9.200;2023-04-25T23:16:05;7.68;;;7.07;;
12118;SDS011;6123;48.864;9.200;2023-04-25T23:18:33;8.32;;;7.53;;
12118;SDS011;6123;48.864;9.200;2023-04-25T23:21:03;9.23;;;7.68;;
12118;SDS011;6123;48.864;9.200;2023-04-25T23:23:31;7.90;;;7.10;;
12118;SDS011;6123;48.864;9.200;2023-04-25T23:25:59;9.10;;;7.05;;
12118;SDS011;6123;48.864;9.200;2023-04-25T23:28:30;8.15;;;7.15;;
12118;SDS011;6123;48.864;9.200;2023-04-25T23:31:02;7.93;;;7.25;;
12118;SDS011;6123;48.864;9.200;2023-04-25T23:33:31;8.45;;;7.53;;
12118;SDS011;6123;48.864;9.200;2023-04-25T23:35:57;6.70;;;6.10;;
12118;SDS011;6123;48.864;9.200;2023-04-25T23:38:23;7.68;;;6.88;;
12118;SDS011;6123;48.864;9.200;2023-04-25T23:40:52;7.70;;;7.03;;
12118;SDS011;6123;48.864;9.200;2023-04-25T23:43:20;7.93;;;6.63;;
12118;SDS011;6123;48.864;9.200;2023-04-25T23:45:48;7.90;;;7.20;;
12118;SDS011;6123;48.864;9.200;2023-04-25T23:48:13;8.90;;;7.53;;
12118;SDS011;6123;48.864;9.200;2023-04-25T23:50:40;8.05;;;7.25;;
12118;SDS011;6123;48.864;9.200;2023-04-25T23:53:08;8.10;;;7.20;;
12118;SDS011;6123;48.864;9.200;2023-04-25T23:55:36;8.43;;;7.28;;
12118;SDS011;6123;48.864;9.200;2023-04-25T23:58:02;9.00;;;8.07;;
